createdAt,value
2023-04-10T00:00:43.305Z,99202.92
2023-04-10T00:03:22.178Z,99199.73
2023-04-10T00:05:50.410Z,99197.04
2023-04-10T00:08:18.092Z,99191.16
2023-04-10T00:10:46.068Z,99182.83
2023-04-10T00:13:14.926Z,99176.98
2023-04-10T00:15:43.134Z,99171.00
2023-04-10T00:18:11.111Z,99170.38
2023-04-10T00:20:38.759Z,99169.45
2023-04-10T00:23:06.434Z,99171.33
2023-04-10T00:25:34.394Z,99174.26
2023-04-10T00:28:02.151Z,99180.36
2023-04-10T00:30:29.815Z,99179.52
2023-04-10T00:32:57.791Z,99175.80
2023-04-10T00:35:25.489Z,99179.66
2023-04-10T00:37:54.621Z,99178.25
2023-04-10T00:40:22.417Z,99175.38
2023-04-10T00:42:50.055Z,99178.30
2023-04-10T00:45:17.913Z,99173.91
2023-04-10T00:47:45.768Z,99174.05
2023-04-10T00:50:13.567Z,99175.87
2023-04-10T00:52:41.246Z,99173.73
2023-04-10T00:55:09.455Z,99174.00
2023-04-10T00:57:37.591Z,99171.17
2023-04-10T01:00:05.878Z,99179.66
2023-04-10T01:02:33.636Z,99177.32
2023-04-10T01:05:02.290Z,99179.18
2023-04-10T01:07:44.914Z,99175.36
2023-04-10T01:10:51.982Z,99174.50
2023-04-10T01:13:23.663Z,99173.74
2023-04-10T01:16:09.699Z,99175.44
2023-04-10T01:18:42.233Z,99171.93
2023-04-10T01:21:11.381Z,99175.48
2023-04-10T01:24:11.878Z,99176.13
2023-04-10T01:26:53.975Z,99173.11
2023-04-10T01:29:23.467Z,99175.33
2023-04-10T01:31:55.239Z,99173.95
2023-04-10T01:34:28.327Z,99171.95
2023-04-10T01:37:01.052Z,99172.10
2023-04-10T01:39:29.366Z,99171.43
2023-04-10T01:41:57.952Z,99169.47
2023-04-10T01:44:28.225Z,99166.14
2023-04-10T01:46:56.531Z,99169.11
2023-04-10T01:49:25.391Z,99166.75
2023-04-10T01:51:55.664Z,99169.38
2023-04-10T01:54:23.396Z,99168.18
2023-04-10T01:56:51.411Z,99167.42
2023-04-10T01:59:19.583Z,99172.66
2023-04-10T02:01:47.626Z,99169.41
2023-04-10T02:04:15.673Z,99174.07
2023-04-10T02:07:17.023Z,99171.77
2023-04-10T02:09:58.814Z,99178.56
2023-04-10T02:12:37.257Z,99185.13
2023-04-10T02:15:06.662Z,99189.73
2023-04-10T02:17:34.962Z,99186.36
2023-04-10T02:20:03.737Z,99191.41
2023-04-10T02:22:31.454Z,99188.05
2023-04-10T02:24:59.249Z,99193.84
2023-04-10T02:27:33.114Z,99190.68
2023-04-10T02:30:02.468Z,99192.73
2023-04-10T02:32:30.769Z,99190.71
2023-04-10T02:34:58.739Z,99191.70
2023-04-10T02:37:26.460Z,99186.39
2023-04-10T02:39:55.051Z,99187.04
2023-04-10T02:42:22.808Z,99186.19
2023-04-10T02:44:50.425Z,99185.94
2023-04-10T02:47:18.897Z,99181.30
2023-04-10T02:49:47.187Z,99180.67
2023-04-10T02:52:14.796Z,99182.88
2023-04-10T02:54:42.564Z,99182.01
2023-04-10T02:57:10.455Z,99183.05
2023-04-10T02:59:38.106Z,99184.75
2023-04-10T03:02:05.846Z,99188.29
2023-04-10T03:04:33.775Z,99189.98
2023-04-10T03:07:02.034Z,99183.61
2023-04-10T03:09:29.673Z,99186.76
2023-04-10T03:11:57.865Z,99186.70
2023-04-10T03:14:27.889Z,99189.52
2023-04-10T03:16:55.531Z,99187.80
2023-04-10T03:19:23.621Z,99185.70
2023-04-10T03:21:51.795Z,99190.61
2023-04-10T03:24:19.438Z,99193.02
2023-04-10T03:26:47.734Z,99197.41
2023-04-10T03:29:19.061Z,99200.89
2023-04-10T03:31:46.931Z,99201.38
2023-04-10T03:34:14.722Z,99199.23
2023-04-10T03:36:42.323Z,99196.95
2023-04-10T03:39:09.990Z,99194.06
2023-04-10T03:41:37.738Z,99198.53
2023-04-10T03:44:05.423Z,99194.61
2023-04-10T03:46:33.194Z,99192.02
2023-04-10T03:49:01.159Z,99191.11
2023-04-10T03:51:28.870Z,99190.02
2023-04-10T03:53:56.725Z,99191.45
2023-04-10T03:56:24.442Z,99191.46
2023-04-10T03:58:52.038Z,99193.92
2023-04-10T04:01:19.656Z,99190.98
2023-04-10T04:03:47.425Z,99191.36
2023-04-10T04:06:15.318Z,99188.41
2023-04-10T04:08:43.010Z,99188.98
2023-04-10T04:11:11.585Z,99188.08
2023-04-10T04:13:39.229Z,99186.48
2023-04-10T04:16:07.958Z,99185.45
2023-04-10T04:18:35.812Z,99193.80
2023-04-10T04:21:03.686Z,99195.96
2023-04-10T04:23:31.318Z,99197.41
2023-04-10T04:25:59.206Z,99196.95
2023-04-10T04:28:28.417Z,99200.34
2023-04-10T04:30:57.199Z,99200.65
2023-04-10T04:33:24.849Z,99202.06
2023-04-10T04:35:52.823Z,99200.42
2023-04-10T04:38:20.549Z,99199.02
2023-04-10T04:40:48.161Z,99197.17
2023-04-10T04:43:16.108Z,99202.20
2023-04-10T04:45:43.818Z,99208.45
2023-04-10T04:48:11.852Z,99213.75
2023-04-10T04:50:42.897Z,99208.69
2023-04-10T04:53:10.550Z,99211.90
2023-04-10T04:55:38.216Z,99214.04
2023-04-10T04:58:05.975Z,99212.63
2023-04-10T05:00:33.666Z,99211.73
2023-04-10T05:03:01.522Z,99211.27
2023-04-10T05:05:29.390Z,99219.41
2023-04-10T05:07:57.014Z,99221.23
2023-04-10T05:10:24.713Z,99222.02
2023-04-10T05:12:52.330Z,99222.03
2023-04-10T05:15:19.973Z,99226.95
2023-04-10T05:17:51.082Z,99224.13
2023-04-10T05:20:19.196Z,99227.47
2023-04-10T05:22:46.816Z,99223.20
2023-04-10T05:25:14.564Z,99227.98
2023-04-10T05:27:42.197Z,99234.52
2023-04-10T05:30:10.458Z,99237.35
2023-04-10T05:32:38.398Z,99235.92
2023-04-10T05:35:06.764Z,99236.15
2023-04-10T05:37:34.544Z,99237.30
2023-04-10T05:40:02.285Z,99235.70
2023-04-10T05:42:30.566Z,99237.90
2023-04-10T05:44:58.264Z,99239.73
2023-04-10T05:47:26.099Z,99241.61
2023-04-10T05:49:53.954Z,99247.01
2023-04-10T05:52:21.782Z,99247.45
2023-04-10T05:54:49.898Z,99245.98
2023-04-10T05:57:17.832Z,99247.33
2023-04-10T05:59:45.736Z,99247.20
2023-04-10T06:02:13.620Z,99246.19
2023-04-10T06:04:41.470Z,99246.00
2023-04-10T06:07:09.353Z,99242.94
2023-04-10T06:09:36.959Z,99250.16
2023-04-10T06:12:04.593Z,99247.09
2023-04-10T06:14:32.261Z,99247.41
2023-04-10T06:17:00.001Z,99243.09
2023-04-10T06:19:27.641Z,99243.73
2023-04-10T06:21:55.469Z,99243.74
2023-04-10T06:24:23.146Z,99243.94
2023-04-10T06:26:50.815Z,99250.06
2023-04-10T06:29:18.414Z,99250.91
2023-04-10T06:31:48.502Z,99251.96
2023-04-10T06:34:16.166Z,99252.99
2023-04-10T06:36:43.988Z,99253.38
2023-04-10T06:39:11.639Z,99255.32
2023-04-10T06:41:39.459Z,99251.47
2023-04-10T06:44:07.424Z,99253.05
2023-04-10T06:46:35.290Z,99256.70
2023-04-10T06:49:03.059Z,99254.41
2023-04-10T06:51:31.567Z,99251.95
2023-04-10T06:53:59.208Z,99254.10
2023-04-10T06:56:27.083Z,99257.55
2023-04-10T06:58:55.147Z,99259.35
2023-04-10T07:01:23.105Z,99258.94
2023-04-10T07:03:50.900Z,99265.13
2023-04-10T07:06:18.816Z,99264.69
2023-04-10T07:08:47.534Z,99263.62
2023-04-10T07:11:15.153Z,99266.91
2023-04-10T07:13:42.817Z,99266.30
2023-04-10T07:16:11.424Z,99270.20
2023-04-10T07:18:41.250Z,99270.36
2023-04-10T07:21:13.310Z,99269.75
2023-04-10T07:23:41.218Z,99266.63
2023-04-10T07:26:08.916Z,99264.58
2023-04-10T07:28:36.810Z,99258.27
2023-04-10T07:31:04.796Z,99256.94
2023-04-10T07:33:32.497Z,99259.32
2023-04-10T07:36:02.580Z,99255.00
2023-04-10T07:38:30.330Z,99253.58
2023-04-10T07:40:58.616Z,99249.59
2023-04-10T07:43:26.384Z,99251.06
2023-04-10T07:45:54.131Z,99245.73
2023-04-10T07:48:21.818Z,99243.37
2023-04-10T07:50:50.401Z,99240.20
2023-04-10T07:53:18.220Z,99237.69
2023-04-10T07:55:48.775Z,99243.06
2023-04-10T07:58:16.962Z,99238.17
2023-04-10T08:00:45.104Z,99238.19
2023-04-10T08:03:13.737Z,99236.45
2023-04-10T08:05:41.833Z,99231.92
2023-04-10T08:08:09.523Z,99230.45
2023-04-10T08:10:40.348Z,99233.02
2023-04-10T08:13:08.062Z,99226.06
2023-04-10T08:15:36.211Z,99228.52
2023-04-10T08:18:03.935Z,99229.77
2023-04-10T08:20:37.162Z,99233.31
2023-04-10T08:23:17.029Z,99234.07
2023-04-10T08:25:48.215Z,99239.51
2023-04-10T08:28:16.061Z,99233.20
2023-04-10T08:30:43.734Z,99226.11
2023-04-10T08:33:11.719Z,99226.29
2023-04-10T08:35:39.443Z,99229.27
2023-04-10T08:38:14.206Z,99224.18
2023-04-10T08:40:44.812Z,99225.73
2023-04-10T08:43:12.556Z,99232.94
2023-04-10T08:45:41.354Z,99232.73
2023-04-10T08:48:09.308Z,99230.69
2023-04-10T08:50:37.154Z,99234.60
2023-04-10T08:53:08.398Z,99234.39
2023-04-10T08:55:36.201Z,99235.35
2023-04-10T08:58:04.125Z,99234.15
2023-04-10T09:00:34.688Z,99234.32
2023-04-10T09:03:05.007Z,99239.92
2023-04-10T09:05:32.765Z,99237.25
2023-04-10T09:08:00.944Z,99238.33
2023-04-10T09:10:29.266Z,99240.09
2023-04-10T09:12:56.872Z,99236.77
2023-04-10T09:15:24.666Z,99240.21
2023-04-10T09:18:00.461Z,99238.51
2023-04-10T09:20:31.875Z,99238.77
2023-04-10T09:22:59.637Z,99235.55
2023-04-10T09:25:33.442Z,99235.95
2023-04-10T09:28:08.546Z,99237.37
2023-04-10T09:30:40.856Z,99240.48
2023-04-10T09:33:25.174Z,99240.91
2023-04-10T09:35:53.072Z,99244.60
2023-04-10T09:38:21.576Z,99241.89
2023-04-10T09:40:49.629Z,99237.11
2023-04-10T09:43:26.581Z,99234.46
2023-04-10T09:45:56.496Z,99231.85
2023-04-10T09:48:24.858Z,99231.98
2023-04-10T09:50:52.618Z,99230.60
2023-04-10T09:53:20.843Z,99231.81
2023-04-10T09:55:49.002Z,99228.00
2023-04-10T09:58:17.056Z,99225.48
2023-04-10T10:00:46.314Z,99220.58
2023-04-10T10:03:18.662Z,99219.14
2023-04-10T10:05:48.821Z,99219.02
2023-04-10T10:08:16.638Z,99209.98
2023-04-10T10:10:48.989Z,99207.17
2023-04-10T10:13:25.067Z,99203.98
2023-04-10T10:16:13.398Z,99200.18
2023-04-10T10:18:47.831Z,99197.83
2023-04-10T10:21:16.127Z,99200.27
2023-04-10T10:23:44.357Z,99201.14
2023-04-10T10:26:12.051Z,99199.33
2023-04-10T10:28:40.714Z,99194.92
2023-04-10T10:31:08.541Z,99188.79
2023-04-10T10:33:37.092Z,99185.32
2023-04-10T10:36:05.414Z,99181.11
2023-04-10T10:38:33.334Z,99182.33
2023-04-10T10:41:16.799Z,99179.50
2023-04-10T10:43:44.400Z,99181.25
2023-04-10T10:46:19.178Z,99181.70
2023-04-10T10:48:57.975Z,99183.52
2023-04-10T10:51:44.618Z,99183.36
2023-04-10T10:54:31.489Z,99187.00
2023-04-10T10:56:59.983Z,99183.64
2023-04-10T10:59:46.391Z,99180.62
2023-04-10T11:02:18.269Z,99177.02
2023-04-10T11:04:47.009Z,99177.11
2023-04-10T11:07:15.776Z,99173.89
2023-04-10T11:09:53.581Z,99174.20
2023-04-10T11:12:24.976Z,99170.16
2023-04-10T11:15:04.991Z,99169.98
2023-04-10T11:17:51.437Z,99168.42
2023-04-10T11:20:22.041Z,99169.48
2023-04-10T11:23:11.271Z,99166.52
2023-04-10T11:25:57.010Z,99163.60
2023-04-10T11:28:37.708Z,99159.14
2023-04-10T11:31:26.175Z,99155.69
2023-04-10T11:34:00.128Z,99143.30
2023-04-10T11:36:27.862Z,99143.17
2023-04-10T11:39:03.018Z,99137.68
2023-04-10T11:41:34.840Z,99137.51
2023-04-10T11:44:04.251Z,99129.99
2023-04-10T11:46:32.397Z,99127.98
2023-04-10T11:49:01.789Z,99125.27
2023-04-10T11:51:29.681Z,99118.24
2023-04-10T11:54:10.338Z,99107.96
2023-04-10T11:56:39.069Z,99106.54
2023-04-10T11:59:11.198Z,99101.70
2023-04-10T12:01:41.302Z,99093.98
2023-04-10T12:04:17.837Z,99088.91
2023-04-10T12:06:47.155Z,99088.50
2023-04-10T12:09:16.471Z,99080.83
2023-04-10T12:12:04.401Z,99067.41
2023-04-10T12:14:35.229Z,99067.08
2023-04-10T12:17:03.577Z,99060.20
2023-04-10T12:19:31.567Z,99059.44
2023-04-10T12:21:59.969Z,99055.88
2023-04-10T12:24:50.696Z,99052.46
2023-04-10T12:27:22.027Z,99053.59
2023-04-10T12:29:51.227Z,99049.11
2023-04-10T12:32:19.098Z,99048.30
2023-04-10T12:34:50.837Z,99046.95
2023-04-10T12:37:19.295Z,99044.31
2023-04-10T12:39:46.960Z,99037.41
2023-04-10T12:42:16.607Z,99026.64
2023-04-10T12:44:58.960Z,99028.08
2023-04-10T12:47:27.978Z,99024.99
2023-04-10T12:50:10.221Z,99022.39
2023-04-10T12:52:39.976Z,99020.25
2023-04-10T12:55:12.166Z,99011.73
2023-04-10T12:57:40.695Z,99014.05
2023-04-10T13:00:09.718Z,99005.10
2023-04-10T13:02:38.260Z,98998.20
2023-04-10T13:05:06.730Z,98996.44
2023-04-10T13:07:34.415Z,98986.50
2023-04-10T13:10:02.120Z,98988.58
2023-04-10T13:12:30.203Z,98983.20
2023-04-10T13:14:57.826Z,98981.98
2023-04-10T13:17:25.767Z,98975.73
2023-04-10T13:19:53.593Z,98971.07
2023-04-10T13:22:21.317Z,98972.23
2023-04-10T13:24:49.144Z,98965.22
2023-04-10T13:27:16.855Z,98959.02
2023-04-10T13:29:44.586Z,98956.27
2023-04-10T13:32:12.381Z,98954.45
2023-04-10T13:34:40.061Z,98949.02
2023-04-10T13:37:09.360Z,98940.04
2023-04-10T13:39:37.083Z,98940.09
2023-04-10T13:42:04.753Z,98933.27
2023-04-10T13:44:32.514Z,98937.34
2023-04-10T13:47:00.237Z,98934.30
2023-04-10T13:49:30.581Z,98932.02
2023-04-10T13:51:58.366Z,98930.49
2023-04-10T13:54:26.588Z,98922.82
2023-04-10T13:56:54.946Z,98925.20
2023-04-10T13:59:22.780Z,98923.66
2023-04-10T14:01:52.533Z,98922.88
2023-04-10T14:04:20.438Z,98915.86
2023-04-10T14:06:49.404Z,98909.64
2023-04-10T14:09:18.316Z,98906.23
2023-04-10T14:11:46.090Z,98909.42
2023-04-10T14:14:13.738Z,98906.06
2023-04-10T14:16:41.633Z,98898.91
2023-04-10T14:19:09.418Z,98888.16
2023-04-10T14:21:37.468Z,98882.94
2023-04-10T14:24:05.238Z,98880.98
2023-04-10T14:26:32.863Z,98877.47
2023-04-10T14:29:00.710Z,98881.23
2023-04-10T14:31:29.586Z,98876.16
2023-04-10T14:33:57.418Z,98878.16
2023-04-10T14:36:25.539Z,98872.95
2023-04-10T14:38:53.626Z,98869.58
2023-04-10T14:41:21.630Z,98873.91
2023-04-10T14:43:49.310Z,98873.92
2023-04-10T14:46:17.454Z,98869.70
2023-04-10T14:48:45.194Z,98864.14
2023-04-10T14:51:13.234Z,98857.02
2023-04-10T14:53:40.905Z,98856.85
2023-04-10T14:56:12.456Z,98851.61
2023-04-10T14:58:40.441Z,98850.43
2023-04-10T15:01:12.081Z,98855.05
2023-04-10T15:03:40.105Z,98857.58
2023-04-10T15:06:08.171Z,98857.13
2023-04-10T15:08:35.863Z,98856.87
2023-04-10T15:11:05.298Z,98856.05
2023-04-10T15:13:33.161Z,98857.36
2023-04-10T15:16:01.084Z,98854.98
2023-04-10T15:18:29.125Z,98850.67
2023-04-10T15:20:57.392Z,98845.77
2023-04-10T15:23:26.786Z,98844.34
2023-04-10T15:25:55.126Z,98845.59
2023-04-10T15:28:23.338Z,98846.61
2023-04-10T15:30:51.216Z,98846.24
2023-04-10T15:33:19.112Z,98847.94
2023-04-10T15:35:48.130Z,98842.35
2023-04-10T15:38:16.044Z,98842.34
2023-04-10T15:40:43.697Z,98833.16
2023-04-10T15:43:12.882Z,98827.45
2023-04-10T15:45:40.509Z,98831.05
2023-04-10T15:48:08.239Z,98832.91
2023-04-10T15:50:40.515Z,98834.11
2023-04-10T15:53:08.152Z,98830.73
2023-04-10T15:55:40.048Z,98833.19
2023-04-10T15:58:08.116Z,98824.73
2023-04-10T16:00:36.891Z,98824.57
2023-04-10T16:03:05.981Z,98820.09
2023-04-10T16:05:33.947Z,98823.20
2023-04-10T16:08:02.814Z,98817.34
2023-04-10T16:10:30.703Z,98821.83
2023-04-10T16:13:04.057Z,98820.10
2023-04-10T16:15:36.308Z,98818.23
2023-04-10T16:18:05.082Z,98821.25
2023-04-10T16:20:32.982Z,98818.08
2023-04-10T16:23:01.104Z,98812.62
2023-04-10T16:25:29.078Z,98810.34
2023-04-10T16:27:57.170Z,98811.94
2023-04-10T16:30:24.891Z,98807.54
2023-04-10T16:32:53.005Z,98800.86
2023-04-10T16:35:22.413Z,98802.69
2023-04-10T16:37:50.475Z,98805.49
2023-04-10T16:40:18.088Z,98802.37
2023-04-10T16:42:45.800Z,98803.84
2023-04-10T16:45:13.943Z,98801.08
2023-04-10T16:47:43.987Z,98806.60
2023-04-10T16:50:12.009Z,98809.13
2023-04-10T16:52:40.269Z,98813.60
2023-04-10T16:55:08.380Z,98818.25
2023-04-10T16:57:36.562Z,98821.86
2023-04-10T17:00:05.061Z,98817.67
2023-04-10T17:02:33.064Z,98819.49
2023-04-10T17:05:01.166Z,98822.88
2023-04-10T17:07:28.881Z,98825.55
2023-04-10T17:09:56.671Z,98827.67
2023-04-10T17:12:24.767Z,98825.38
2023-04-10T17:14:52.502Z,98826.41
2023-04-10T17:17:20.445Z,98829.02
2023-04-10T17:19:49.313Z,98825.32
2023-04-10T17:22:17.509Z,98826.73
2023-04-10T17:24:46.195Z,98821.78
2023-04-10T17:27:14.437Z,98817.90
2023-04-10T17:29:42.638Z,98818.06
2023-04-10T17:32:11.073Z,98821.55
2023-04-10T17:34:39.002Z,98831.73
2023-04-10T17:37:06.689Z,98827.83
2023-04-10T17:39:34.807Z,98825.35
2023-04-10T17:42:03.009Z,98823.56
2023-04-10T17:44:31.554Z,98821.80
2023-04-10T17:46:59.664Z,98820.51
2023-04-10T17:49:27.957Z,98828.02
2023-04-10T17:51:55.965Z,98816.91
2023-04-10T17:54:24.420Z,98819.66
2023-04-10T17:56:52.758Z,98820.80
2023-04-10T17:59:20.818Z,98814.27
2023-04-10T18:01:49.115Z,98817.85
2023-04-10T18:04:17.291Z,98820.05
2023-04-10T18:06:45.457Z,98817.86
2023-04-10T18:09:13.679Z,98818.85
2023-04-10T18:11:41.594Z,98816.71
2023-04-10T18:14:10.049Z,98814.44
2023-04-10T18:16:37.915Z,98811.62
2023-04-10T18:19:05.829Z,98813.17
2023-04-10T18:21:34.902Z,98812.09
2023-04-10T18:24:03.750Z,98812.60
2023-04-10T18:26:33.418Z,98811.88
2023-04-10T18:29:01.474Z,98805.88
2023-04-10T18:31:29.826Z,98806.71
2023-04-10T18:34:06.959Z,98804.22
2023-04-10T18:36:36.235Z,98801.71
2023-04-10T18:39:04.862Z,98795.88
2023-04-10T18:41:32.815Z,98793.36
2023-04-10T18:44:05.272Z,98796.10
2023-04-10T18:46:33.936Z,98795.50
2023-04-10T18:49:03.230Z,98795.25
2023-04-10T18:51:33.451Z,98790.27
2023-04-10T18:54:06.218Z,98792.09
2023-04-10T18:56:35.750Z,98793.06
2023-04-10T18:59:04.473Z,98794.45
2023-04-10T19:01:32.864Z,98795.82
2023-04-10T19:04:01.121Z,98800.15
2023-04-10T19:06:30.400Z,98804.77
2023-04-10T19:08:58.461Z,98804.48
2023-04-10T19:11:26.125Z,98806.12
2023-04-10T19:13:54.686Z,98797.77
2023-04-10T19:16:23.343Z,98798.50
2023-04-10T19:18:53.891Z,98800.99
2023-04-10T19:21:22.111Z,98801.04
2023-04-10T19:23:50.617Z,98804.04
2023-04-10T19:26:20.101Z,98807.04
2023-04-10T19:28:47.732Z,98805.30
2023-04-10T19:31:15.811Z,98800.31
2023-04-10T19:33:44.106Z,98799.92
2023-04-10T19:36:12.313Z,98798.14
2023-04-10T19:38:40.912Z,98801.92
2023-04-10T19:41:15.558Z,98805.33
2023-04-10T19:43:43.290Z,98805.92
2023-04-10T19:46:17.909Z,98802.88
2023-04-10T19:48:46.350Z,98803.48
2023-04-10T19:51:14.767Z,98803.17
2023-04-10T19:53:42.832Z,98801.44
2023-04-10T19:56:10.862Z,98795.19
2023-04-10T19:58:41.435Z,98797.34
2023-04-10T20:01:10.365Z,98797.98
2023-04-10T20:03:38.811Z,98789.89
2023-04-10T20:06:07.595Z,98785.08
2023-04-10T20:08:35.855Z,98785.67
2023-04-10T20:11:06.395Z,98784.54
2023-04-10T20:13:41.503Z,98784.00
2023-04-10T20:16:09.207Z,98784.05
2023-04-10T20:18:37.146Z,98775.27
2023-04-10T20:21:07.526Z,98769.98
2023-04-10T20:23:35.185Z,98768.70
2023-04-10T20:26:02.902Z,98762.23
2023-04-10T20:28:31.680Z,98755.93
2023-04-10T20:30:59.325Z,98748.11
2023-04-10T20:33:26.990Z,98751.85
2023-04-10T20:35:54.709Z,98747.02
2023-04-10T20:38:22.389Z,98735.88
2023-04-10T20:40:50.319Z,98740.27
2023-04-10T20:43:18.803Z,98739.90
2023-04-10T20:45:46.410Z,98736.58
2023-04-10T20:48:14.138Z,98738.81
2023-04-10T20:50:43.728Z,98730.92
2023-04-10T20:53:12.795Z,98728.43
2023-04-10T20:55:40.686Z,98725.23
2023-04-10T20:58:08.464Z,98717.38
2023-04-10T21:00:36.313Z,98712.51
2023-04-10T21:03:04.284Z,98712.75
2023-04-10T21:05:32.155Z,98710.50
2023-04-10T21:07:59.762Z,98706.83
2023-04-10T21:10:27.377Z,98699.60
2023-04-10T21:12:55.043Z,98695.33
2023-04-10T21:15:22.726Z,98695.59
2023-04-10T21:17:50.464Z,98697.77
2023-04-10T21:20:18.191Z,98697.77
2023-04-10T21:22:45.821Z,98693.77
2023-04-10T21:25:13.470Z,98694.27
2023-04-10T21:27:41.057Z,98697.79
2023-04-10T21:30:09.194Z,98697.20
2023-04-10T21:32:37.107Z,98697.16
2023-04-10T21:35:05.506Z,98688.02
2023-04-10T21:37:33.188Z,98686.50
2023-04-10T21:40:00.836Z,98685.98
2023-04-10T21:42:28.537Z,98681.43
2023-04-10T21:44:56.182Z,98686.09
2023-04-10T21:47:23.863Z,98686.59
2023-04-10T21:49:51.521Z,98681.68
2023-04-10T21:52:19.141Z,98680.77
2023-04-10T21:54:46.815Z,98681.27
2023-04-10T21:57:14.450Z,98676.30
2023-04-10T21:59:42.105Z,98674.29
2023-04-10T22:02:10.759Z,98675.80
2023-04-10T22:04:47.848Z,98677.42
2023-04-10T22:07:21.494Z,98680.38
2023-04-10T22:09:49.206Z,98680.70
2023-04-10T22:12:16.997Z,98677.48
2023-04-10T22:14:44.662Z,98676.04
2023-04-10T22:17:12.365Z,98675.63
2023-04-10T22:19:40.353Z,98671.73
2023-04-10T22:22:08.166Z,98668.91
2023-04-10T22:24:35.816Z,98660.79
2023-04-10T22:27:03.534Z,98655.30
2023-04-10T22:29:31.175Z,98654.92
2023-04-10T22:31:58.904Z,98648.20
2023-04-10T22:34:26.529Z,98646.63
2023-04-10T22:36:54.178Z,98637.03
2023-04-10T22:39:21.888Z,98627.59
2023-04-10T22:41:49.587Z,98625.14
2023-04-10T22:44:17.576Z,98623.04
2023-04-10T22:46:48.223Z,98623.23
2023-04-10T22:49:17.200Z,98613.39
2023-04-10T22:51:45.920Z,98611.80
2023-04-10T22:54:15.904Z,98605.73
2023-04-10T22:56:44.227Z,98603.27
2023-04-10T22:59:12.187Z,98599.67
2023-04-10T23:01:39.905Z,98601.94
2023-04-10T23:04:07.786Z,98597.93
2023-04-10T23:06:35.441Z,98600.73
2023-04-10T23:09:03.450Z,98586.96
2023-04-10T23:11:31.137Z,98587.66
2023-04-10T23:13:58.828Z,98582.77
2023-04-10T23:16:27.144Z,98579.29
2023-04-10T23:18:55.308Z,98575.05
2023-04-10T23:21:23.085Z,98571.88
2023-04-10T23:23:50.789Z,98571.25
2023-04-10T23:26:18.447Z,98568.63
2023-04-10T23:28:46.942Z,98565.66
2023-04-10T23:31:14.920Z,98557.11
2023-04-10T23:33:42.739Z,98559.12
2023-04-10T23:36:10.510Z,98559.38
2023-04-10T23:38:38.150Z,98555.46
2023-04-10T23:41:07.128Z,98551.06
2023-04-10T23:43:34.797Z,98549.46
2023-04-10T23:46:02.456Z,98545.16
2023-04-10T23:48:30.197Z,98539.54
2023-04-10T23:51:05.359Z,98537.08
2023-04-10T23:53:33.052Z,98535.30
2023-04-10T23:56:01.057Z,98532.04
2023-04-10T23:58:28.698Z,98528.91
